KFLD/FLD METAR and TAF weather

Enter ICAO airport designator
Station Type Date Time Source
KFLD METAR 2018/12/15 22:53 UTC NOAA

KFLD 152253Z AUTO 00000KT 10SM CLR 00/M02 A3020 RMK AO2 SLP238 T00001017 TSNO


Station Type Date Time Source
KFLD Decoded METAR 2018/12/15 22:53 UTC NOAA

FOND DU LAC COUNTY AIRPORT, WI, United States (KFLD) 43-46N 88-29W 240M
Dec 15, 2018 - 05:53 PM EST / 2018.12.15 2253 UTC
Wind: Calm:0
Visibility: 10 mile(s):0
Sky conditions: clear
Temperature: 32.0 F (0.0 C)
Dew Point: 28.9 F (-1.7 C)
Relative Humidity: 88%
Pressure (altimeter): 30.2 in. Hg (1022 hPa)
ob: KFLD 152253Z AUTO 00000KT 10SM CLR 00/M02 A3020 RMK AO2 SLP238 T00001017 TSNO
cycle: 23

Station Type Date Time Source
KFLD TAF UTC NOAA

Error!


Example: see airport list